KPSC/PSC METAR and TAF weather

Enter ICAO airport designator
Station Type Date Time Source
KPSC METAR 2022/01/29 12:53 UTC NOAA

KPSC 291253Z AUTO 00000KT 10SM OVC023 00/M03 A3047 RMK AO2 SLP323 T00001033


Station Type Date Time Source
KPSC Decoded METAR 2022/01/29 12:53 UTC NOAA

TRI-CITIES AIRPORT, WA, United States (KPSC) 46-16N 119-07W 121M
Jan 29, 2022 - 07:53 AM EST / 2022.01.29 1253 UTC
Wind: Calm:0
Visibility: 10 mile(s):0
Sky conditions: overcast
Temperature: 32.0 F (0.0 C)
Dew Point: 26.1 F (-3.3 C)
Relative Humidity: 78%
Pressure (altimeter): 30.47 in. Hg (1031 hPa)
ob: KPSC 291253Z AUTO 00000KT 10SM OVC023 00/M03 A3047 RMK AO2 SLP323 T00001033
cycle: 13

Station Type Date Time Source
KPSC TAF 2022/01/29 13:12 UTC NOAA

TAF
AMD KPSC 291311Z 2913/3012 35003KT P6SM OVC021
FM292200 35003KT P6SM OVC250

Example: see airport list